sensor_id;sensor_type;location;lat;lon;timestamp;pressure;altitude;pressure_sealevel;temperature;humidity
74722;BME280;63470;49.826;6.740;2023-06-14T00:01:32;99835.41;;;13.16;40.55
74722;BME280;63470;49.826;6.740;2023-06-14T00:03:59;99835.89;;;13.14;40.55
74722;BME280;63470;49.826;6.740;2023-06-14T00:06:30;99833.60;;;13.08;40.56
74722;BME280;63470;49.826;6.740;2023-06-14T00:09:01;99830.09;;;13.01;40.62
74722;BME280;63470;49.826;6.740;2023-06-14T00:11:31;99830.86;;;12.92;40.73
74722;BME280;63470;49.826;6.740;2023-06-14T00:14:06;99833.02;;;12.92;40.62
74722;BME280;63470;49.826;6.740;2023-06-14T00:16:37;99832.34;;;12.87;40.64
74722;BME280;63470;49.826;6.740;2023-06-14T00:19:06;99830.87;;;12.84;40.66
74722;BME280;63470;49.826;6.740;2023-06-14T00:21:33;99833.45;;;12.83;40.63
74722;BME280;63470;49.826;6.740;2023-06-14T00:24:07;99835.00;;;12.82;40.59
74722;BME280;63470;49.826;6.740;2023-06-14T00:26:34;99837.84;;;12.75;40.66
74722;BME280;63470;49.826;6.740;2023-06-14T00:29:04;99837.43;;;12.75;40.65
74722;BME280;63470;49.826;6.740;2023-06-14T00:31:35;99841.78;;;12.74;40.63
74722;BME280;63470;49.826;6.740;2023-06-14T00:34:05;99843.66;;;12.72;40.63
74722;BME280;63470;49.826;6.740;2023-06-14T00:36:36;99845.70;;;12.73;40.57
74722;BME280;63470;49.826;6.740;2023-06-14T00:39:06;99844.78;;;12.73;40.53
74722;BME280;63470;49.826;6.740;2023-06-14T00:41:37;99850.31;;;12.71;40.53
74722;BME280;63470;49.826;6.740;2023-06-14T00:44:07;99846.01;;;12.66;40.60
74722;BME280;63470;49.826;6.740;2023-06-14T00:46:38;99850.50;;;12.60;40.67
74722;BME280;63470;49.826;6.740;2023-06-14T00:49:08;99851.78;;;12.55;40.71
74722;BME280;63470;49.826;6.740;2023-06-14T00:51:42;99855.86;;;12.49;40.72
74722;BME280;63470;49.826;6.740;2023-06-14T00:54:09;99853.88;;;12.41;40.77
74722;BME280;63470;49.826;6.740;2023-06-14T00:56:40;99849.91;;;12.35;40.82
74722;BME280;63470;49.826;6.740;2023-06-14T00:59:12;99855.22;;;12.29;40.89
74722;BME280;63470;49.826;6.740;2023-06-14T01:01:40;99853.89;;;12.23;40.96
74722;BME280;63470;49.826;6.740;2023-06-14T01:04:11;99849.23;;;12.21;40.99
74722;BME280;63470;49.826;6.740;2023-06-14T01:06:59;99854.78;;;12.21;41.00
74722;BME280;63470;49.826;6.740;2023-06-14T01:11:59;99863.57;;;12.14;41.07
74722;BME280;63470;49.826;6.740;2023-06-14T01:14:14;99865.27;;;12.13;41.03
74722;BME280;63470;49.826;6.740;2023-06-14T01:16:43;99867.42;;;12.12;41.00
74722;BME280;63470;49.826;6.740;2023-06-14T01:19:15;99867.92;;;12.07;41.03
74722;BME280;63470;49.826;6.740;2023-06-14T01:21:43;99870.41;;;12.01;41.08
74722;BME280;63470;49.826;6.740;2023-06-14T01:24:14;99867.89;;;11.96;41.15
74722;BME280;63470;49.826;6.740;2023-06-14T01:26:47;99867.08;;;11.99;41.10
74722;BME280;63470;49.826;6.740;2023-06-14T01:29:18;99865.59;;;12.04;41.00
74722;BME280;63470;49.826;6.740;2023-06-14T01:31:46;99864.20;;;12.07;40.97
74722;BME280;63470;49.826;6.740;2023-06-14T01:34:15;99869.05;;;12.05;41.00
74722;BME280;63470;49.826;6.740;2023-06-14T01:36:47;99866.80;;;12.09;40.96
74722;BME280;63470;49.826;6.740;2023-06-14T01:39:17;99867.42;;;12.07;40.95
74722;BME280;63470;49.826;6.740;2023-06-14T01:41:50;99868.05;;;12.02;41.03
74722;BME280;63470;49.826;6.740;2023-06-14T01:44:18;99867.81;;;11.99;41.08
74722;BME280;63470;49.826;6.740;2023-06-14T01:46:50;99869.02;;;12.00;41.03
74722;BME280;63470;49.826;6.740;2023-06-14T01:49:20;99869.02;;;11.97;41.06
74722;BME280;63470;49.826;6.740;2023-06-14T01:51:49;99871.89;;;11.95;41.12
74722;BME280;63470;49.826;6.740;2023-06-14T01:54:20;99875.61;;;11.95;41.10
74722;BME280;63470;49.826;6.740;2023-06-14T01:56:50;99878.31;;;11.94;41.09
74722;BME280;63470;49.826;6.740;2023-06-14T01:59:21;99877.31;;;11.88;41.17
74722;BME280;63470;49.826;6.740;2023-06-14T02:01:54;99880.45;;;11.84;41.18
74722;BME280;63470;49.826;6.740;2023-06-14T02:04:21;99878.58;;;11.77;41.26
74722;BME280;63470;49.826;6.740;2023-06-14T02:06:52;99876.34;;;11.71;41.33
74722;BME280;63470;49.826;6.740;2023-06-14T02:09:22;99876.99;;;11.68;41.35
74722;BME280;63470;49.826;6.740;2023-06-14T02:11:52;99879.43;;;11.67;41.27
74722;BME280;63470;49.826;6.740;2023-06-14T02:14:24;99882.41;;;11.62;41.29
74722;BME280;63470;49.826;6.740;2023-06-14T02:16:54;99887.54;;;11.59;41.36
74722;BME280;63470;49.826;6.740;2023-06-14T02:19:24;99886.41;;;11.61;41.38
74722;BME280;63470;49.826;6.740;2023-06-14T02:21:54;99884.22;;;11.63;41.39
74722;BME280;63470;49.826;6.740;2023-06-14T02:24:28;99888.45;;;11.65;41.42
74722;BME280;63470;49.826;6.740;2023-06-14T02:26:57;99886.61;;;11.63;41.43
74722;BME280;63470;49.826;6.740;2023-06-14T02:29:26;99893.62;;;11.60;41.46
74722;BME280;63470;49.826;6.740;2023-06-14T02:31:56;99894.09;;;11.57;41.45
74722;BME280;63470;49.826;6.740;2023-06-14T02:34:27;99892.94;;;11.54;41.43
74722;BME280;63470;49.826;6.740;2023-06-14T02:36:57;99889.14;;;11.54;41.37
74722;BME280;63470;49.826;6.740;2023-06-14T02:39:27;99888.06;;;11.47;41.45
74722;BME280;63470;49.826;6.740;2023-06-14T02:41:57;99891.42;;;11.45;41.54
74722;BME280;63470;49.826;6.740;2023-06-14T02:44:29;99891.69;;;11.48;41.50
74722;BME280;63470;49.826;6.740;2023-06-14T02:47:04;99889.98;;;11.43;41.58
74722;BME280;63470;49.826;6.740;2023-06-14T02:49:30;99888.77;;;11.39;41.62
74722;BME280;63470;49.826;6.740;2023-06-14T02:52:00;99889.00;;;11.40;41.57
74722;BME280;63470;49.826;6.740;2023-06-14T02:54:29;99888.88;;;11.39;41.54
74722;BME280;63470;49.826;6.740;2023-06-14T02:57:01;99892.48;;;11.36;41.55
74722;BME280;63470;49.826;6.740;2023-06-14T02:59:30;99891.03;;;11.29;41.66
74722;BME280;63470;49.826;6.740;2023-06-14T03:02:01;99887.83;;;11.21;41.77
74722;BME280;63470;49.826;6.740;2023-06-14T03:04:37;99890.16;;;11.20;41.79
74722;BME280;63470;49.826;6.740;2023-06-14T03:07:08;99895.89;;;11.21;41.79
74722;BME280;63470;49.826;6.740;2023-06-14T03:09:33;99895.16;;;11.21;41.75
74722;BME280;63470;49.826;6.740;2023-06-14T03:12:04;99899.27;;;11.22;41.70
74722;BME280;63470;49.826;6.740;2023-06-14T03:14:33;99902.75;;;11.18;41.69
74722;BME280;63470;49.826;6.740;2023-06-14T03:17:05;99906.14;;;11.18;41.73
74722;BME280;63470;49.826;6.740;2023-06-14T03:19:35;99905.77;;;11.17;41.76
74722;BME280;63470;49.826;6.740;2023-06-14T03:22:08;99905.16;;;11.14;41.83
74722;BME280;63470;49.826;6.740;2023-06-14T03:24:37;99907.14;;;11.14;41.84
74722;BME280;63470;49.826;6.740;2023-06-14T03:27:06;99907.19;;;11.12;41.89
74722;BME280;63470;49.826;6.740;2023-06-14T03:29:37;99906.78;;;11.09;41.90
74722;BME280;63470;49.826;6.740;2023-06-14T03:32:08;99908.20;;;11.04;41.96
74722;BME280;63470;49.826;6.740;2023-06-14T03:34:39;99908.32;;;11.06;41.90
74722;BME280;63470;49.826;6.740;2023-06-14T03:37:09;99908.11;;;11.09;41.79
74722;BME280;63470;49.826;6.740;2023-06-14T03:39:47;99907.38;;;11.08;41.81
74722;BME280;63470;49.826;6.740;2023-06-14T03:42:11;99910.09;;;11.07;41.86
74722;BME280;63470;49.826;6.740;2023-06-14T03:44:40;99912.94;;;11.07;41.86
74722;BME280;63470;49.826;6.740;2023-06-14T03:47:11;99917.17;;;11.05;41.92
74722;BME280;63470;49.826;6.740;2023-06-14T03:49:41;99916.83;;;11.07;41.93
74722;BME280;63470;49.826;6.740;2023-06-14T03:52:12;99917.02;;;11.09;41.91
74722;BME280;63470;49.826;6.740;2023-06-14T03:54:44;99919.45;;;11.13;41.90
74722;BME280;63470;49.826;6.740;2023-06-14T03:57:13;99917.91;;;11.16;41.91
74722;BME280;63470;49.826;6.740;2023-06-14T03:59:43;99919.55;;;11.20;41.89
74722;BME280;63470;49.826;6.740;2023-06-14T04:02:18;99923.92;;;11.23;41.86
74722;BME280;63470;49.826;6.740;2023-06-14T04:04:49;99925.68;;;11.27;41.86
74722;BME280;63470;49.826;6.740;2023-06-14T04:07:15;99927.19;;;11.33;41.83
74722;BME280;63470;49.826;6.740;2023-06-14T04:09:46;99927.62;;;11.41;41.74
74722;BME280;63470;49.826;6.740;2023-06-14T04:12:17;99927.50;;;11.50;41.66
74722;BME280;63470;49.826;6.740;2023-06-14T04:14:47;99928.49;;;11.60;41.62
74722;BME280;63470;49.826;6.740;2023-06-14T04:17:18;99934.30;;;11.70;41.55
74722;BME280;63470;49.826;6.740;2023-06-14T04:19:48;99934.97;;;11.76;41.50
74722;BME280;63470;49.826;6.740;2023-06-14T04:22:19;99944.89;;;11.83;41.52
74722;BME280;63470;49.826;6.740;2023-06-14T04:24:55;99949.48;;;11.90;41.52
74722;BME280;63470;49.826;6.740;2023-06-14T04:27:26;99947.25;;;11.97;41.52
74722;BME280;63470;49.826;6.740;2023-06-14T04:30:00;99950.21;;;12.07;41.47
74722;BME280;63470;49.826;6.740;2023-06-14T04:32:23;99954.58;;;12.17;41.43
74722;BME280;63470;49.826;6.740;2023-06-14T04:34:54;99951.38;;;12.25;41.47
74722;BME280;63470;49.826;6.740;2023-06-14T04:37:23;99957.38;;;12.36;41.49
74722;BME280;63470;49.826;6.740;2023-06-14T04:39:54;99954.16;;;12.47;41.45
74722;BME280;63470;49.826;6.740;2023-06-14T04:42:30;99955.64;;;12.62;41.39
74722;BME280;63470;49.826;6.740;2023-06-14T04:44:56;99956.91;;;12.78;41.23
74722;BME280;63470;49.826;6.740;2023-06-14T04:47:30;99956.18;;;12.94;41.12
74722;BME280;63470;49.826;6.740;2023-06-14T04:49:57;99963.66;;;13.08;41.06
74722;BME280;63470;49.826;6.740;2023-06-14T04:52:27;99964.38;;;13.22;41.00
74722;BME280;63470;49.826;6.740;2023-06-14T04:54:56;99965.17;;;13.36;40.91
74722;BME280;63470;49.826;6.740;2023-06-14T04:57:27;99965.25;;;13.52;40.83
74722;BME280;63470;49.826;6.740;2023-06-14T04:59:58;99965.75;;;13.65;40.77
74722;BME280;63470;49.826;6.740;2023-06-14T05:02:31;99965.63;;;13.78;40.77
74722;BME280;63470;49.826;6.740;2023-06-14T05:05:02;99969.44;;;13.91;40.75
74722;BME280;63470;49.826;6.740;2023-06-14T05:07:29;99974.52;;;14.04;40.71
74722;BME280;63470;49.826;6.740;2023-06-14T05:10:00;99971.36;;;14.17;40.67
74722;BME280;63470;49.826;6.740;2023-06-14T05:12:30;99973.45;;;14.32;40.60
74722;BME280;63470;49.826;6.740;2023-06-14T05:15:01;99974.29;;;14.45;40.51
74722;BME280;63470;49.826;6.740;2023-06-14T05:17:31;99976.19;;;14.57;40.48
74722;BME280;63470;49.826;6.740;2023-06-14T05:20:02;99970.14;;;14.68;40.45
74722;BME280;63470;49.826;6.740;2023-06-14T05:22:32;99973.78;;;14.79;40.42
74722;BME280;63470;49.826;6.740;2023-06-14T05:25:04;99971.72;;;14.92;40.37
74722;BME280;63470;49.826;6.740;2023-06-14T05:27:37;99974.44;;;15.06;40.31
74722;BME280;63470;49.826;6.740;2023-06-14T05:30:06;99972.55;;;15.22;40.22
74722;BME280;63470;49.826;6.740;2023-06-14T05:32:35;99970.42;;;15.38;40.11
74722;BME280;63470;49.826;6.740;2023-06-14T05:35:07;99968.40;;;15.56;40.00
74722;BME280;63470;49.826;6.740;2023-06-14T05:37:36;99974.29;;;15.77;39.88
74722;BME280;63470;49.826;6.740;2023-06-14T05:40:08;99970.56;;;16.25;39.52
74722;BME280;63470;49.826;6.740;2023-06-14T05:42:37;99965.14;;;17.61;38.07
74722;BME280;63470;49.826;6.740;2023-06-14T05:45:08;99966.64;;;19.03;36.92
74722;BME280;63470;49.826;6.740;2023-06-14T05:47:40;99961.80;;;20.24;36.23
74722;BME280;63470;49.826;6.740;2023-06-14T05:50:11;99960.47;;;21.24;35.83
74722;BME280;63470;49.826;6.740;2023-06-14T05:52:41;99956.42;;;21.81;35.85
74722;BME280;63470;49.826;6.740;2023-06-14T05:55:13;99956.69;;;22.36;35.88
74722;BME280;63470;49.826;6.740;2023-06-14T05:57:42;99958.07;;;22.93;35.82
74722;BME280;63470;49.826;6.740;2023-06-14T06:00:15;99959.57;;;23.29;35.92
74722;BME280;63470;49.826;6.740;2023-06-14T06:02:44;99960.34;;;23.68;35.89
74722;BME280;63470;49.826;6.740;2023-06-14T06:05:13;99952.42;;;24.16;35.75
74722;BME280;63470;49.826;6.740;2023-06-14T06:07:46;99957.78;;;24.38;35.89
74722;BME280;63470;49.826;6.740;2023-06-14T06:10:13;99961.67;;;24.81;35.84
74722;BME280;63470;49.826;6.740;2023-06-14T06:12:45;99966.97;;;25.07;35.82
74722;BME280;63470;49.826;6.740;2023-06-14T06:15:15;99965.97;;;25.24;35.83
74722;BME280;63470;49.826;6.740;2023-06-14T06:17:44;99968.33;;;25.41;35.75
74722;BME280;63470;49.826;6.740;2023-06-14T06:20:15;99966.23;;;25.66;35.69
74722;BME280;63470;49.826;6.740;2023-06-14T06:22:45;99962.45;;;25.90;35.65
74722;BME280;63470;49.826;6.740;2023-06-14T06:25:17;99961.54;;;25.84;36.08
74722;BME280;63470;49.826;6.740;2023-06-14T06:27:46;99965.35;;;26.01;36.09
74722;BME280;63470;49.826;6.740;2023-06-14T06:30:17;99961.23;;;25.95;36.33
74722;BME280;63470;49.826;6.740;2023-06-14T06:32:48;99960.92;;;25.68;36.76
74722;BME280;63470;49.826;6.740;2023-06-14T06:35:18;99961.26;;;25.60;36.50
74722;BME280;63470;49.826;6.740;2023-06-14T06:37:49;99971.42;;;25.16;36.67
74722;BME280;63470;49.826;6.740;2023-06-14T06:40:19;99969.62;;;24.61;37.21
74722;BME280;63470;49.826;6.740;2023-06-14T06:42:50;99972.42;;;24.03;37.77
74722;BME280;63470;49.826;6.740;2023-06-14T06:45:20;99977.21;;;23.66;38.14
74722;BME280;63470;49.826;6.740;2023-06-14T06:47:51;99978.20;;;23.71;38.01
74722;BME280;63470;49.826;6.740;2023-06-14T06:50:23;99981.36;;;23.85;37.68
74722;BME280;63470;49.826;6.740;2023-06-14T06:52:52;99980.97;;;23.95;37.48
74722;BME280;63470;49.826;6.740;2023-06-14T06:55:22;99979.59;;;24.00;37.28
74722;BME280;63470;49.826;6.740;2023-06-14T06:57:54;99981.25;;;24.01;37.10
74722;BME280;63470;49.826;6.740;2023-06-14T07:00:23;99980.53;;;23.87;37.24
74722;BME280;63470;49.826;6.740;2023-06-14T07:02:55;99986.62;;;23.94;37.08
74722;BME280;63470;49.826;6.740;2023-06-14T07:05:25;99984.41;;;23.78;37.34
74722;BME280;63470;49.826;6.740;2023-06-14T07:07:56;99989.77;;;23.76;37.42
74722;BME280;63470;49.826;6.740;2023-06-14T07:10:26;99995.50;;;23.86;37.23
74722;BME280;63470;49.826;6.740;2023-06-14T07:12:57;99988.84;;;23.93;37.08
74722;BME280;63470;49.826;6.740;2023-06-14T07:15:27;99992.01;;;23.97;37.03
74722;BME280;63470;49.826;6.740;2023-06-14T07:18:00;99983.94;;;24.33;36.45
74722;BME280;63470;49.826;6.740;2023-06-14T07:20:29;99985.38;;;24.53;36.14
74722;BME280;63470;49.826;6.740;2023-06-14T07:22:59;99986.78;;;24.44;36.32
74722;BME280;63470;49.826;6.740;2023-06-14T07:25:30;99985.57;;;24.35;36.59
74722;BME280;63470;49.826;6.740;2023-06-14T07:28:00;99990.70;;;24.26;36.76
74722;BME280;63470;49.826;6.740;2023-06-14T07:30:31;99989.49;;;24.17;36.85
74722;BME280;63470;49.826;6.740;2023-06-14T07:33:01;99984.84;;;24.02;37.01
74722;BME280;63470;49.826;6.740;2023-06-14T07:35:32;99984.19;;;24.07;37.05
74722;BME280;63470;49.826;6.740;2023-06-14T07:38:02;99980.15;;;24.27;36.93
74722;BME280;63470;49.826;6.740;2023-06-14T07:40:33;99986.56;;;24.67;36.54
74722;BME280;63470;49.826;6.740;2023-06-14T07:43:03;99988.91;;;24.79;36.45
74722;BME280;63470;49.826;6.740;2023-06-14T07:45:33;99987.91;;;24.79;36.53
74722;BME280;63470;49.826;6.740;2023-06-14T07:48:04;99989.58;;;24.99;36.32
74722;BME280;63470;49.826;6.740;2023-06-14T07:50:35;99983.81;;;25.38;35.83
74722;BME280;63470;49.826;6.740;2023-06-14T07:53:05;99981.62;;;25.92;35.37
74722;BME280;63470;49.826;6.740;2023-06-14T07:55:37;99973.95;;;26.53;34.72
74722;BME280;63470;49.826;6.740;2023-06-14T07:58:07;99972.60;;;26.72;34.59
74722;BME280;63470;49.826;6.740;2023-06-14T08:00:37;99971.54;;;26.84;34.60
74722;BME280;63470;49.826;6.740;2023-06-14T08:03:08;99974.75;;;27.15;34.37
74722;BME280;63470;49.826;6.740;2023-06-14T08:05:38;99972.17;;;27.66;33.86
74722;BME280;63470;49.826;6.740;2023-06-14T08:08:08;99975.82;;;28.22;33.20
74722;BME280;63470;49.826;6.740;2023-06-14T08:10:38;99966.38;;;28.57;32.94
74722;BME280;63470;49.826;6.740;2023-06-14T08:13:10;99968.81;;;28.73;32.98
74722;BME280;63470;49.826;6.740;2023-06-14T08:15:40;99958.38;;;29.05;32.93
74722;BME280;63470;49.826;6.740;2023-06-14T08:18:11;99964.56;;;29.45;32.84
74722;BME280;63470;49.826;6.740;2023-06-14T08:20:41;99964.75;;;29.67;32.88
74722;BME280;63470;49.826;6.740;2023-06-14T08:23:12;99965.10;;;29.75;33.06
74722;BME280;63470;49.826;6.740;2023-06-14T08:25:43;99962.75;;;29.93;33.25
74722;BME280;63470;49.826;6.740;2023-06-14T08:28:13;99967.53;;;30.16;33.37
74722;BME280;63470;49.826;6.740;2023-06-14T08:30:44;99955.91;;;30.44;33.43
74722;BME280;63470;49.826;6.740;2023-06-14T08:33:14;99956.95;;;30.42;33.73
74722;BME280;63470;49.826;6.740;2023-06-14T08:35:45;99959.77;;;30.62;33.90
74722;BME280;63470;49.826;6.740;2023-06-14T08:38:15;99956.39;;;30.71;34.10
74722;BME280;63470;49.826;6.740;2023-06-14T08:40:50;99956.62;;;30.87;34.25
74722;BME280;63470;49.826;6.740;2023-06-14T08:43:16;99960.68;;;30.90;34.39
74722;BME280;63470;49.826;6.740;2023-06-14T08:45:48;99958.92;;;30.65;34.70
74722;BME280;63470;49.826;6.740;2023-06-14T08:48:18;99956.86;;;30.64;34.74
74722;BME280;63470;49.826;6.740;2023-06-14T08:50:48;99957.03;;;30.81;34.63
74722;BME280;63470;49.826;6.740;2023-06-14T08:53:21;99955.06;;;30.80;34.74
74722;BME280;63470;49.826;6.740;2023-06-14T08:55:48;99952.27;;;30.78;34.74
74722;BME280;63470;49.826;6.740;2023-06-14T08:58:20;99957.08;;;30.94;34.70
74722;BME280;63470;49.826;6.740;2023-06-14T09:00:50;99958.59;;;30.92;34.85
74722;BME280;63470;49.826;6.740;2023-06-14T09:03:21;99956.84;;;31.04;34.82
74722;BME280;63470;49.826;6.740;2023-06-14T09:05:50;99956.88;;;31.00;34.91
74722;BME280;63470;49.826;6.740;2023-06-14T09:08:24;99955.95;;;31.07;34.85
74722;BME280;63470;49.826;6.740;2023-06-14T09:10:51;99955.19;;;31.15;34.80
74722;BME280;63470;49.826;6.740;2023-06-14T09:13:22;99956.84;;;31.13;34.94
74722;BME280;63470;49.826;6.740;2023-06-14T09:15:52;99961.24;;;31.38;34.73
74722;BME280;63470;49.826;6.740;2023-06-14T09:18:42;99962.15;;;31.58;34.61
74722;BME280;63470;49.826;6.740;2023-06-14T09:20:54;99963.19;;;31.27;35.00
74722;BME280;63470;49.826;6.740;2023-06-14T09:23:24;99966.99;;;31.21;35.19
74722;BME280;63470;49.826;6.740;2023-06-14T09:25:54;99963.89;;;31.22;35.24
74722;BME280;63470;49.826;6.740;2023-06-14T09:28:28;99964.83;;;31.28;35.27
74722;BME280;63470;49.826;6.740;2023-06-14T09:30:56;99966.23;;;31.27;35.36
74722;BME280;63470;49.826;6.740;2023-06-14T09:33:25;99969.35;;;31.22;35.47
74722;BME280;63470;49.826;6.740;2023-06-14T09:35:56;99978.83;;;31.30;35.46
74722;BME280;63470;49.826;6.740;2023-06-14T09:38:27;99981.05;;;31.48;35.34
74722;BME280;63470;49.826;6.740;2023-06-14T09:40:58;99984.03;;;31.63;35.14
74722;BME280;63470;49.826;6.740;2023-06-14T09:43:28;99984.44;;;31.63;35.13
74722;BME280;63470;49.826;6.740;2023-06-14T09:45:58;99987.99;;;31.60;35.19
74722;BME280;63470;49.826;6.740;2023-06-14T09:48:29;99982.92;;;31.60;35.20
74722;BME280;63470;49.826;6.740;2023-06-14T09:51:00;99983.93;;;31.56;35.29
74722;BME280;63470;49.826;6.740;2023-06-14T09:53:33;99976.28;;;31.60;35.31
74722;BME280;63470;49.826;6.740;2023-06-14T09:56:01;99974.42;;;31.80;35.17
74722;BME280;63470;49.826;6.740;2023-06-14T09:58:32;99971.47;;;31.96;35.04
74722;BME280;63470;49.826;6.740;2023-06-14T10:01:03;99965.98;;;32.01;35.04
74722;BME280;63470;49.826;6.740;2023-06-14T10:03:32;99968.81;;;32.28;34.81
74722;BME280;63470;49.826;6.740;2023-06-14T10:06:04;99964.92;;;32.18;34.92
74722;BME280;63470;49.826;6.740;2023-06-14T10:08:36;99963.34;;;32.15;35.01
74722;BME280;63470;49.826;6.740;2023-06-14T10:11:03;99958.78;;;32.21;35.01
74722;BME280;63470;49.826;6.740;2023-06-14T10:13:36;99968.66;;;32.26;35.04
74722;BME280;63470;49.826;6.740;2023-06-14T10:16:16;99962.95;;;32.31;35.04
74722;BME280;63470;49.826;6.740;2023-06-14T10:21:16;99961.98;;;32.72;34.82
74722;BME280;63470;49.826;6.740;2023-06-14T10:23:42;99960.75;;;32.89;34.72
74722;BME280;63470;49.826;6.740;2023-06-14T10:26:07;99968.45;;;32.90;34.78
74722;BME280;63470;49.826;6.740;2023-06-14T10:28:37;99959.29;;;32.77;34.97
74722;BME280;63470;49.826;6.740;2023-06-14T10:31:09;99962.88;;;32.80;35.08
74722;BME280;63470;49.826;6.740;2023-06-14T10:33:49;99965.48;;;32.75;35.12
74722;BME280;63470;49.826;6.740;2023-06-14T10:36:11;99967.00;;;32.58;35.31
74722;BME280;63470;49.826;6.740;2023-06-14T10:38:41;99964.66;;;32.65;35.33
74722;BME280;63470;49.826;6.740;2023-06-14T10:41:10;99962.31;;;32.79;35.23
74722;BME280;63470;49.826;6.740;2023-06-14T10:43:41;99962.09;;;33.00;35.11
74722;BME280;63470;49.826;6.740;2023-06-14T10:46:13;99961.62;;;32.94;35.17
74722;BME280;63470;49.826;6.740;2023-06-14T10:48:43;99971.54;;;32.63;35.53
74722;BME280;63470;49.826;6.740;2023-06-14T10:51:20;99957.83;;;32.60;35.59
74722;BME280;63470;49.826;6.740;2023-06-14T10:53:43;99952.39;;;32.82;35.45
74722;BME280;63470;49.826;6.740;2023-06-14T10:56:30;99958.48;;;32.84;35.40
74722;BME280;63470;49.826;6.740;2023-06-14T10:58:43;99959.13;;;32.61;35.67
74722;BME280;63470;49.826;6.740;2023-06-14T11:01:14;99961.86;;;32.71;35.60
74722;BME280;63470;49.826;6.740;2023-06-14T11:03:51;99972.52;;;32.63;35.71
74722;BME280;63470;49.826;6.740;2023-06-14T11:06:15;99965.16;;;32.47;35.89
74722;BME280;63470;49.826;6.740;2023-06-14T11:11:16;99962.47;;;32.09;36.25
74722;BME280;63470;49.826;6.740;2023-06-14T11:13:46;99955.50;;;31.99;36.36
74722;BME280;63470;49.826;6.740;2023-06-14T11:16:17;99958.91;;;32.01;36.33
74722;BME280;63470;49.826;6.740;2023-06-14T11:18:47;99961.60;;;32.10;36.24
74722;BME280;63470;49.826;6.740;2023-06-14T11:21:19;99960.44;;;32.15;36.14
74722;BME280;63470;49.826;6.740;2023-06-14T11:23:52;99964.30;;;32.24;36.07
74722;BME280;63470;49.826;6.740;2023-06-14T11:26:25;99958.72;;;32.22;36.07
74722;BME280;63470;49.826;6.740;2023-06-14T11:28:55;99959.86;;;32.15;36.16
74722;BME280;63470;49.826;6.740;2023-06-14T11:31:20;99960.62;;;32.04;36.27
74722;BME280;63470;49.826;6.740;2023-06-14T11:33:50;99959.27;;;32.07;36.27
74722;BME280;63470;49.826;6.740;2023-06-14T11:36:21;99951.66;;;32.17;36.18
74722;BME280;63470;49.826;6.740;2023-06-14T11:39:03;99951.66;;;32.20;36.19
74722;BME280;63470;49.826;6.740;2023-06-14T11:41:24;99958.71;;;32.16;36.19
74722;BME280;63470;49.826;6.740;2023-06-14T11:43:54;99960.95;;;31.97;36.40
74722;BME280;63470;49.826;6.740;2023-06-14T11:46:25;99957.23;;;31.75;36.65
74722;BME280;63470;49.826;6.740;2023-06-14T11:48:56;99956.98;;;31.60;36.83
74722;BME280;63470;49.826;6.740;2023-06-14T11:51:24;99957.00;;;31.52;36.88
74722;BME280;63470;49.826;6.740;2023-06-14T11:53:54;99954.19;;;31.45;36.90
74722;BME280;63470;49.826;6.740;2023-06-14T11:56:27;99955.02;;;31.52;36.79
74722;BME280;63470;49.826;6.740;2023-06-14T11:58:59;99954.87;;;31.72;36.52
74722;BME280;63470;49.826;6.740;2023-06-14T12:01:26;99960.66;;;31.70;36.55
74722;BME280;63470;49.826;6.740;2023-06-14T12:03:57;99951.07;;;31.78;36.46
74722;BME280;63470;49.826;6.740;2023-06-14T12:06:30;99956.38;;;31.75;36.50
74722;BME280;63470;49.826;6.740;2023-06-14T12:08:57;99958.39;;;31.83;36.39
74722;BME280;63470;49.826;6.740;2023-06-14T12:11:32;99950.98;;;31.84;36.42
74722;BME280;63470;49.826;6.740;2023-06-14T12:13:59;99949.91;;;31.79;36.46
74722;BME280;63470;49.826;6.740;2023-06-14T12:16:33;99951.09;;;31.84;36.47
74722;BME280;63470;49.826;6.740;2023-06-14T12:19:15;99953.54;;;31.84;36.45
74722;BME280;63470;49.826;6.740;2023-06-14T12:21:29;99949.95;;;31.77;36.55
74722;BME280;63470;49.826;6.740;2023-06-14T12:24:03;99947.14;;;31.78;36.55
74722;BME280;63470;49.826;6.740;2023-06-14T12:26:32;99945.52;;;31.96;36.43
74722;BME280;63470;49.826;6.740;2023-06-14T12:29:04;99948.83;;;32.34;36.08
74722;BME280;63470;49.826;6.740;2023-06-14T12:31:32;99944.58;;;32.42;36.04
74722;BME280;63470;49.826;6.740;2023-06-14T12:34:02;99943.42;;;32.23;36.28
74722;BME280;63470;49.826;6.740;2023-06-14T12:36:32;99944.69;;;31.97;36.53
74722;BME280;63470;49.826;6.740;2023-06-14T12:39:03;99944.56;;;31.97;36.52
74722;BME280;63470;49.826;6.740;2023-06-14T12:41:33;99949.77;;;31.91;36.54
74722;BME280;63470;49.826;6.740;2023-06-14T12:44:07;99951.78;;;31.81;36.58
74722;BME280;63470;49.826;6.740;2023-06-14T12:46:36;99954.80;;;31.79;36.52
74722;BME280;63470;49.826;6.740;2023-06-14T12:49:04;99953.84;;;32.00;36.25
74722;BME280;63470;49.826;6.740;2023-06-14T12:51:35;99960.55;;;32.21;36.04
74722;BME280;63470;49.826;6.740;2023-06-14T12:54:06;99954.48;;;32.35;35.87
74722;BME280;63470;49.826;6.740;2023-06-14T12:56:37;99951.16;;;32.36;35.84
74722;BME280;63470;49.826;6.740;2023-06-14T12:59:09;99954.48;;;32.30;35.88
74722;BME280;63470;49.826;6.740;2023-06-14T13:01:38;99952.88;;;32.21;35.90
74722;BME280;63470;49.826;6.740;2023-06-14T13:04:08;99951.05;;;32.15;35.91
74722;BME280;63470;49.826;6.740;2023-06-14T13:06:39;99953.92;;;32.40;35.65
74722;BME280;63470;49.826;6.740;2023-06-14T13:09:09;99953.72;;;32.51;35.48
74722;BME280;63470;49.826;6.740;2023-06-14T13:11:40;99956.70;;;32.37;35.62
74722;BME280;63470;49.826;6.740;2023-06-14T13:14:11;99955.42;;;32.30;35.65
74722;BME280;63470;49.826;6.740;2023-06-14T13:16:41;99956.23;;;32.37;35.60
74722;BME280;63470;49.826;6.740;2023-06-14T13:19:11;99961.16;;;32.32;35.64
74722;BME280;63470;49.826;6.740;2023-06-14T13:21:42;99956.69;;;32.34;35.64
74722;BME280;63470;49.826;6.740;2023-06-14T13:24:12;99952.74;;;32.47;35.65